This is the latest recevied weather packets stored in our database for station/object KE8GJZ-2. If no packets are shown the sender has not sent any weather packets the latest 1 day(s).
| Time | Temp. | Humidity | Pressure | Rain* | Wind** | Luminosity | Snow |
|---|---|---|---|---|---|---|---|
| 1778072349 | 7.78° C | 65% | 1013.4 hPa | 0 mm | - | 248 W/m² | - |
| 1778072047 | 7.78° C | 63% | 1013.2 hPa | 0 mm | - | 225 W/m² | - |
| 1778070231 | 7.22° C | 69% | 1013.7 hPa | 0 mm | - | 154 W/m² | - |
| 1778069323 | 6.67° C | 73% | 1013.4 hPa | 0 mm | - | 175 W/m² | - |
| 1778068416 | 6.67° C | 74% | 1013.2 hPa | 0 mm | - | 103 W/m² | - |
| 1778068114 | 6.67° C | 76% | 1013 hPa | 0 mm | - | 75 W/m² | - |
| 1778067510 | 6.67° C | 76% | 1012.8 hPa | 0 mm | - | 78 W/m² | - |
| 1778067207 | 6.67° C | 81% | 1012.8 hPa | 0 mm | - | 60 W/m² | - |
| 1778066298 | 3.89° C | 85% | 1012.3 hPa | 0 mm | - | 32 W/m² | - |
| 1778065996 | 3.89° C | 85% | 1012.1 hPa | 0 mm | - | 25 W/m² | - |
| 1778065390 | 3.89° C | 84% | 1012.1 hPa | 0 mm | - | 13 W/m² | - |
| 1778064481 | 3.89° C | 83% | 1011.7 hPa | 0 mm | - | 9 W/m² | - |
| 1778063876 | 4.44° C | 82% | 1011.8 hPa | 0 mm | - | 3 W/m² | - |
| 1778062060 | 3.89° C | 85% | 1012.3 hPa | 0 mm | - | 0 W/m² | - |
| 1778061456 | 3.89° C | 86% | 1011.8 hPa | 0 mm | - | 0 W/m² | - |
| 1778060849 | 3.89° C | 87% | 1012 hPa | 0 mm | - | 0 W/m² | - |
| 1778060246 | 4.44° C | 84% | 1011.9 hPa | 0 mm | - | 0 W/m² | - |
| 1778059338 | 4.44° C | 84% | 1011.7 hPa | 0 mm | - | 0 W/m² | - |
| 1778058430 | 4.44° C | 83% | 1011.3 hPa | 0 mm | - | 0 W/m² | - |
| 1778057824 | 4.44° C | 82% | 1011.2 hPa | 0 mm | - | 0 W/m² | - |
| 1778056913 | 4.44° C | 81% | 1011 hPa | 0 mm | - | 0 W/m² | - |
| 1778056610 | 4.44° C | 82% | 1011 hPa | 0 mm | - | 0 W/m² | - |
| 1778056308 | 4.44° C | 82% | 1010.9 hPa | 0 mm | - | 0 W/m² | - |
| 1778055398 | 5° C | 81% | 1010.8 hPa | 0 mm | - | 0 W/m² | - |
| 1778054793 | 5° C | 79% | 1010.9 hPa | 0 mm | - | 0 W/m² | - |
* Rain latest hour (hover to see other rain measurements)
** Current wind speed in m/s (hover to see current wind gust speed)